Yvonne K. — PBLX — position and weather

sailwx.info

Track history (hours):
 
Tides and Currents Weather Stations Pressure Air Temp Water Temp Dewpoint Dewpoint Depression Visibility Wind Speed Wind Dir Waves Ship Positions

Yvonne K.

Last reported at 2014-Jul-30 17:07 UTC. Time now 2014-Jul-31 07:30 UTC.
Position N 37°27' W 000°57'.

Length 90 m; draft 0.3 m.

Type: Cargo ship. MMSI: 244948000.

Date/timePositionNaut miles runAvg speedWind from/ knotsBaromVisibWave heightAir tempDewpointWater temp
2014-Jul-30 17:07N 37°27' W 000°57'6 9.9
2014-Jul-30 16:33N 37°29' W 000°50'1110.5
2014-Jul-30 15:33N 37°33' W 000°38'9 9.0
2014-Jul-30 14:33N 37°39' W 000°29'16810.4
2014-Jul-29 22:27N 40°12' E 000°58'1010.3
2014-Jul-29 21:31N 40°21' E 001°01'10 0.4
2014-Jul-28 20:27N 40°12' E 000°58'13 9.3
2014-Jul-28 19:05N 39°60' E 000°55'53 9.2
2014-Jul-28 13:21N 39°08' E 000°37'12 9.3
2014-Jul-28 12:05N 38°57' E 000°33'5 9.2
2014-Jul-28 11:33N 38°52' E 000°32'21 9.3
2014-Jul-28 09:17N 38°33' E 000°20'9 9.7
2014-Jul-28 08:21N 38°26' E 000°14'84 9.3
2014-Jul-27 23:23N 37°19' W 000°51'28 9.4
2014-Jul-27 20:26N 37°01' W 001°17'206 9.8
2014-Jul-26 23:28N 35°59' W 005°21'9210.3
2014-Jul-26 14:31N 36°08' W 007°15'6510.7
2014-Jul-26 08:26N 36°25' W 008°33'1310.2
2014-Jul-26 07:09N 36°28' W 008°48'91 9.0
2014-Jul-25 21:04N 37°45' W 009°49'17 9.9
2014-Jul-25 19:23N 38°01' W 009°54'9 9.9
2014-Jul-25 18:28N 38°10' W 009°56'  
2014-Jul-21 15:33N 50°37' E 000°23'9 8.8
2014-Jul-21 14:34N 50°40' E 000°36'10 9.9
2014-Jul-21 13:33N 50°45' E 000°48'1110.8
2014-Jul-21 12:33N 50°51' E 001°02'2110.6
2014-Jul-21 10:34N 51°05' E 001°28'9 9.0
2014-Jul-21 09:34N 51°11' E 001°39'8 8.2
2014-Jul-21 08:34N 51°17' E 001°48'8 8.4
2014-Jul-21 07:33N 51°24' E 001°56'9 8.9
2014-Jul-21 06:34N 51°30' E 002°05'10 9.6
2014-Jul-21 05:33N 51°37' E 002°15'1310.6
2014-Jul-21 04:18N 51°47' E 002°30'1910.8
2014-Jul-21 02:33N 52°01' E 002°51'1310.1
2014-Jul-21 01:17N 52°02' E 003°12'7 9.9
2014-Jul-21 00:33N 52°02' E 003°24'10 9.6
2014-Jul-20 23:29N 52°03' E 003°40'8 9.1
2014-Jul-20 22:33N 52°03' E 003°54'9 9.4
2014-Jul-20 21:33N 51°58' E 004°07'0 0.3
2014-Jul-20 20:32N 51°58' E 004°07'0 0.0
2014-Jul-20 19:05N 51°58' E 004°07'0 0.0
2014-Jul-20 18:20N 51°58' E 004°07'0 0.0
2014-Jul-20 17:14N 51°58' E 004°07'  
Track history (hours):
 
Tides and Currents Weather Stations Pressure Air Temp Water Temp Dewpoint Dewpoint Depression Visibility Wind Speed Wind Dir Waves Ship Positions

Yvonne K.

Last reported at 2014-Jul-30 17:07 UTC. Time now 2014-Jul-31 07:30 UTC.
Position N 37°27' W 000°57'.

Length 90 m; draft 0.3 m.

Type: Cargo ship. MMSI: 244948000.

Date/timePositionNaut miles runAvg speedWind from/ knotsBaromVisibWave heightAir tempDewpointWater temp
2014-Jul-30 17:07N 37°27' W 000°57'6 9.9
2014-Jul-30 16:33N 37°29' W 000°50'1110.5
2014-Jul-30 15:33N 37°33' W 000°38'9 9.0
2014-Jul-30 14:33N 37°39' W 000°29'16810.4
2014-Jul-29 22:27N 40°12' E 000°58'1010.3
2014-Jul-29 21:31N 40°21' E 001°01'10 0.4
2014-Jul-28 20:27N 40°12' E 000°58'13 9.3
2014-Jul-28 19:05N 39°60' E 000°55'53 9.2
2014-Jul-28 13:21N 39°08' E 000°37'12 9.3
2014-Jul-28 12:05N 38°57' E 000°33'5 9.2
2014-Jul-28 11:33N 38°52' E 000°32'21 9.3
2014-Jul-28 09:17N 38°33' E 000°20'9 9.7
2014-Jul-28 08:21N 38°26' E 000°14'84 9.3
2014-Jul-27 23:23N 37°19' W 000°51'28 9.4
2014-Jul-27 20:26N 37°01' W 001°17'206 9.8
2014-Jul-26 23:28N 35°59' W 005°21'9210.3
2014-Jul-26 14:31N 36°08' W 007°15'6510.7
2014-Jul-26 08:26N 36°25' W 008°33'1310.2
2014-Jul-26 07:09N 36°28' W 008°48'91 9.0
2014-Jul-25 21:04N 37°45' W 009°49'17 9.9
2014-Jul-25 19:23N 38°01' W 009°54'9 9.9
2014-Jul-25 18:28N 38°10' W 009°56'  
2014-Jul-21 15:33N 50°37' E 000°23'9 8.8
2014-Jul-21 14:34N 50°40' E 000°36'10 9.9
2014-Jul-21 13:33N 50°45' E 000°48'1110.8
2014-Jul-21 12:33N 50°51' E 001°02'2110.6
2014-Jul-21 10:34N 51°05' E 001°28'9 9.0
2014-Jul-21 09:34N 51°11' E 001°39'8 8.2
2014-Jul-21 08:34N 51°17' E 001°48'8 8.4
2014-Jul-21 07:33N 51°24' E 001°56'9 8.9
2014-Jul-21 06:34N 51°30' E 002°05'10 9.6
2014-Jul-21 05:33N 51°37' E 002°15'1310.6
2014-Jul-21 04:18N 51°47' E 002°30'1910.8
2014-Jul-21 02:33N 52°01' E 002°51'1310.1
2014-Jul-21 01:17N 52°02' E 003°12'7 9.9
2014-Jul-21 00:33N 52°02' E 003°24'10 9.6
2014-Jul-20 23:29N 52°03' E 003°40'8 9.1
2014-Jul-20 22:33N 52°03' E 003°54'9 9.4
2014-Jul-20 21:33N 51°58' E 004°07'0 0.3
2014-Jul-20 20:32N 51°58' E 004°07'0 0.0
2014-Jul-20 19:05N 51°58' E 004°07'0 0.0
2014-Jul-20 18:20N 51°58' E 004°07'0 0.0
2014-Jul-20 17:14N 51°58' E 004°07'  

Dump ship's entire track history